Terminal Aerodrome Forecast
Issued by NWS Wichita, KS

Home | Current Version | Previous Version | Graphics & Text | Print | Product List | Glossary On
Versions: 1 2 3 4 5 6 7 8 9 10 11 12 13 14 15 16 17 18 19 20 21 22 23
568
FTUS43 KICT 270220 AAB
TAFICT
TAF AMD
KICT 270220Z 2702/2724 VRB13G22KT 6SM -TSRA SCT050CB OVC080
      TEMPO 2702/2705 P6SM -RA BKN080
     FM270500 17009KT P6SM OVC100
     FM270600 18007KT P6SM OVC200
     FM271000 18009KT P6SM SCT015 OVC150
     FM271400 29009KT P6SM BKN015
     FM271700 30013KT P6SM BKN035=

USA.gov is the U.S. government's official web portal to all federal, state and local government web resources and services.